sensor_id;sensor_type;location;lat;lon;timestamp;P1;durP1;ratioP1;P2;durP2;ratioP2
15116;SDS011;7659;51.038;13.786;2023-10-08T00:02:09;7.20;;;4.15;;
15116;SDS011;7659;51.038;13.786;2023-10-08T00:04:35;10.93;;;4.05;;
15116;SDS011;7659;51.038;13.786;2023-10-08T00:07:03;19.08;;;11.02;;
15116;SDS011;7659;51.038;13.786;2023-10-08T00:09:33;13.95;;;4.57;;
15116;SDS011;7659;51.038;13.786;2023-10-08T00:12:01;9.50;;;3.47;;
15116;SDS011;7659;51.038;13.786;2023-10-08T00:14:27;13.82;;;4.28;;
15116;SDS011;7659;51.038;13.786;2023-10-08T00:16:53;6.93;;;3.45;;
15116;SDS011;7659;51.038;13.786;2023-10-08T00:19:19;9.02;;;4.13;;
15116;SDS011;7659;51.038;13.786;2023-10-08T00:21:44;23.67;;;9.80;;
15116;SDS011;7659;51.038;13.786;2023-10-08T00:24:11;41.58;;;28.77;;
15116;SDS011;7659;51.038;13.786;2023-10-08T00:26:39;25.67;;;16.42;;
15116;SDS011;7659;51.038;13.786;2023-10-08T00:29:08;12.77;;;5.25;;
15116;SDS011;7659;51.038;13.786;2023-10-08T00:31:46;13.55;;;6.10;;
15116;SDS011;7659;51.038;13.786;2023-10-08T00:34:13;10.02;;;4.75;;
15116;SDS011;7659;51.038;13.786;2023-10-08T00:36:40;9.88;;;5.10;;
15116;SDS011;7659;51.038;13.786;2023-10-08T00:39:07;8.88;;;5.43;;
15116;SDS011;7659;51.038;13.786;2023-10-08T00:41:52;15.05;;;4.40;;
15116;SDS011;7659;51.038;13.786;2023-10-08T00:44:24;13.45;;;4.10;;
15116;SDS011;7659;51.038;13.786;2023-10-08T00:46:55;13.98;;;4.47;;
15116;SDS011;7659;51.038;13.786;2023-10-08T00:49:24;12.82;;;4.28;;
15116;SDS011;7659;51.038;13.786;2023-10-08T00:51:51;13.13;;;4.32;;
15116;SDS011;7659;51.038;13.786;2023-10-08T00:54:49;12.18;;;4.40;;
15116;SDS011;7659;51.038;13.786;2023-10-08T00:57:34;13.75;;;4.97;;
15116;SDS011;7659;51.038;13.786;2023-10-08T01:00:07;12.32;;;4.78;;
15116;SDS011;7659;51.038;13.786;2023-10-08T01:02:40;11.98;;;4.22;;
15116;SDS011;7659;51.038;13.786;2023-10-08T01:05:14;10.02;;;4.78;;
15116;SDS011;7659;51.038;13.786;2023-10-08T01:07:43;14.95;;;5.10;;
15116;SDS011;7659;51.038;13.786;2023-10-08T01:10:14;12.75;;;5.05;;
15116;SDS011;7659;51.038;13.786;2023-10-08T01:12:44;11.85;;;4.65;;
15116;SDS011;7659;51.038;13.786;2023-10-08T01:15:19;11.63;;;4.85;;
15116;SDS011;7659;51.038;13.786;2023-10-08T01:17:49;14.77;;;6.55;;
15116;SDS011;7659;51.038;13.786;2023-10-08T01:20:34;18.13;;;10.48;;
15116;SDS011;7659;51.038;13.786;2023-10-08T01:23:06;12.35;;;4.68;;
15116;SDS011;7659;51.038;13.786;2023-10-08T01:25:48;12.35;;;5.47;;
15116;SDS011;7659;51.038;13.786;2023-10-08T01:28:16;8.43;;;4.90;;
15116;SDS011;7659;51.038;13.786;2023-10-08T01:31:00;12.85;;;5.70;;
15116;SDS011;7659;51.038;13.786;2023-10-08T01:33:29;10.77;;;5.45;;
15116;SDS011;7659;51.038;13.786;2023-10-08T01:35:55;19.45;;;6.70;;
15116;SDS011;7659;51.038;13.786;2023-10-08T01:38:28;13.20;;;6.38;;
15116;SDS011;7659;51.038;13.786;2023-10-08T01:40:53;13.65;;;6.40;;
15116;SDS011;7659;51.038;13.786;2023-10-08T01:43:19;14.07;;;7.20;;
15116;SDS011;7659;51.038;13.786;2023-10-08T01:45:46;15.43;;;8.13;;
15116;SDS011;7659;51.038;13.786;2023-10-08T01:48:15;18.88;;;8.48;;
15116;SDS011;7659;51.038;13.786;2023-10-08T01:50:56;13.30;;;9.05;;
15116;SDS011;7659;51.038;13.786;2023-10-08T01:53:29;15.10;;;8.67;;
15116;SDS011;7659;51.038;13.786;2023-10-08T01:55:56;12.77;;;7.45;;
15116;SDS011;7659;51.038;13.786;2023-10-08T01:58:24;7.53;;;4.88;;
15116;SDS011;7659;51.038;13.786;2023-10-08T02:00:49;30.63;;;20.80;;
15116;SDS011;7659;51.038;13.786;2023-10-08T02:03:15;21.90;;;17.75;;
15116;SDS011;7659;51.038;13.786;2023-10-08T02:05:46;6.55;;;2.72;;
15116;SDS011;7659;51.038;13.786;2023-10-08T02:08:12;4.10;;;2.28;;
15116;SDS011;7659;51.038;13.786;2023-10-08T02:10:41;2.42;;;1.20;;
15116;SDS011;7659;51.038;13.786;2023-10-08T02:13:08;2.40;;;0.93;;
15116;SDS011;7659;51.038;13.786;2023-10-08T02:15:35;0.93;;;0.60;;
15116;SDS011;7659;51.038;13.786;2023-10-08T02:18:02;0.98;;;0.60;;
15116;SDS011;7659;51.038;13.786;2023-10-08T02:20:28;1.73;;;0.25;;
15116;SDS011;7659;51.038;13.786;2023-10-08T02:22:54;0.47;;;0.32;;
15116;SDS011;7659;51.038;13.786;2023-10-08T02:25:19;0.20;;;0.10;;
15116;SDS011;7659;51.038;13.786;2023-10-08T02:27:45;0.25;;;0.10;;
15116;SDS011;7659;51.038;13.786;2023-10-08T02:30:10;0.63;;;0.20;;
15116;SDS011;7659;51.038;13.786;2023-10-08T02:32:38;0.10;;;0.10;;
15116;SDS011;7659;51.038;13.786;2023-10-08T02:35:05;0.20;;;0.20;;
15116;SDS011;7659;51.038;13.786;2023-10-08T02:37:30;0.20;;;0.10;;
15116;SDS011;7659;51.038;13.786;2023-10-08T02:39:56;31.98;;;25.23;;
15116;SDS011;7659;51.038;13.786;2023-10-08T02:42:23;14.38;;;11.70;;
15116;SDS011;7659;51.038;13.786;2023-10-08T02:44:49;0.98;;;0.88;;
15116;SDS011;7659;51.038;13.786;2023-10-08T02:47:16;0.57;;;0.38;;
15116;SDS011;7659;51.038;13.786;2023-10-08T02:49:46;0.40;;;0.20;;
15116;SDS011;7659;51.038;13.786;2023-10-08T02:52:13;0.30;;;0.10;;
15116;SDS011;7659;51.038;13.786;2023-10-08T02:54:41;0.40;;;0.20;;
15116;SDS011;7659;51.038;13.786;2023-10-08T02:57:06;2.15;;;0.08;;
15116;SDS011;7659;51.038;13.786;2023-10-08T02:59:39;1.25;;;0.10;;
15116;SDS011;7659;51.038;13.786;2023-10-08T03:02:07;0.00;;;0.00;;
15116;SDS011;7659;51.038;13.786;2023-10-08T03:04:41;0.10;;;0.10;;
15116;SDS011;7659;51.038;13.786;2023-10-08T03:07:16;1.55;;;0.10;;
15116;SDS011;7659;51.038;13.786;2023-10-08T03:09:51;0.22;;;0.05;;
15116;SDS011;7659;51.038;13.786;2023-10-08T03:12:28;0.90;;;0.10;;
15116;SDS011;7659;51.038;13.786;2023-10-08T03:14:57;2.20;;;0.10;;
15116;SDS011;7659;51.038;13.786;2023-10-08T03:17:43;0.15;;;0.05;;
15116;SDS011;7659;51.038;13.786;2023-10-08T03:20:16;0.43;;;0.10;;
15116;SDS011;7659;51.038;13.786;2023-10-08T03:23:01;22.42;;;16.75;;
15116;SDS011;7659;51.038;13.786;2023-10-08T03:25:30;4.55;;;3.35;;
15116;SDS011;7659;51.038;13.786;2023-10-08T03:27:56;1.13;;;0.55;;
15116;SDS011;7659;51.038;13.786;2023-10-08T03:30:25;2.55;;;0.40;;
15116;SDS011;7659;51.038;13.786;2023-10-08T03:32:52;0.85;;;0.38;;
15116;SDS011;7659;51.038;13.786;2023-10-08T03:35:24;1.50;;;1.00;;
15116;SDS011;7659;51.038;13.786;2023-10-08T03:37:53;0.00;;;0.00;;
15116;SDS011;7659;51.038;13.786;2023-10-08T03:40:19;0.15;;;0.13;;
15116;SDS011;7659;51.038;13.786;2023-10-08T03:42:57;1.05;;;0.50;;
15116;SDS011;7659;51.038;13.786;2023-10-08T03:45:22;0.80;;;0.20;;
15116;SDS011;7659;51.038;13.786;2023-10-08T03:48:06;1.67;;;0.83;;
15116;SDS011;7659;51.038;13.786;2023-10-08T03:50:35;1.48;;;0.40;;
15116;SDS011;7659;51.038;13.786;2023-10-08T03:53:09;3.55;;;1.00;;
15116;SDS011;7659;51.038;13.786;2023-10-08T03:55:38;4.13;;;1.05;;
15116;SDS011;7659;51.038;13.786;2023-10-08T03:58:08;5.13;;;0.95;;
15116;SDS011;7659;51.038;13.786;2023-10-08T04:00:53;6.15;;;1.50;;
15116;SDS011;7659;51.038;13.786;2023-10-08T04:03:32;3.08;;;1.35;;
15116;SDS011;7659;51.038;13.786;2023-10-08T04:06:17;1.88;;;0.93;;
15116;SDS011;7659;51.038;13.786;2023-10-08T04:08:50;6.82;;;1.45;;
15116;SDS011;7659;51.038;13.786;2023-10-08T04:11:34;5.00;;;1.58;;
15116;SDS011;7659;51.038;13.786;2023-10-08T04:14:15;7.15;;;1.75;;
15116;SDS011;7659;51.038;13.786;2023-10-08T04:16:41;6.93;;;1.38;;
15116;SDS011;7659;51.038;13.786;2023-10-08T04:19:07;6.13;;;1.38;;
15116;SDS011;7659;51.038;13.786;2023-10-08T04:21:32;6.60;;;1.40;;
15116;SDS011;7659;51.038;13.786;2023-10-08T04:23:59;3.90;;;1.33;;
15116;SDS011;7659;51.038;13.786;2023-10-08T04:26:28;6.13;;;1.40;;
15116;SDS011;7659;51.038;13.786;2023-10-08T04:28:54;4.20;;;1.45;;
15116;SDS011;7659;51.038;13.786;2023-10-08T04:31:23;5.78;;;1.30;;
15116;SDS011;7659;51.038;13.786;2023-10-08T04:34:07;4.45;;;1.70;;
15116;SDS011;7659;51.038;13.786;2023-10-08T04:36:41;4.13;;;1.05;;
15116;SDS011;7659;51.038;13.786;2023-10-08T04:39:06;7.43;;;1.65;;
15116;SDS011;7659;51.038;13.786;2023-10-08T04:41:41;5.03;;;1.38;;
15116;SDS011;7659;51.038;13.786;2023-10-08T04:44:10;6.97;;;1.42;;
15116;SDS011;7659;51.038;13.786;2023-10-08T04:46:42;6.35;;;1.50;;
15116;SDS011;7659;51.038;13.786;2023-10-08T04:49:10;4.28;;;1.27;;
15116;SDS011;7659;51.038;13.786;2023-10-08T04:51:48;3.67;;;1.05;;
15116;SDS011;7659;51.038;13.786;2023-10-08T04:54:14;3.08;;;1.20;;
15116;SDS011;7659;51.038;13.786;2023-10-08T04:56:44;3.58;;;1.08;;
15116;SDS011;7659;51.038;13.786;2023-10-08T04:59:09;4.97;;;1.30;;
15116;SDS011;7659;51.038;13.786;2023-10-08T05:01:38;4.90;;;1.13;;
15116;SDS011;7659;51.038;13.786;2023-10-08T05:04:15;2.97;;;1.00;;
15116;SDS011;7659;51.038;13.786;2023-10-08T05:06:51;5.57;;;1.02;;
15116;SDS011;7659;51.038;13.786;2023-10-08T05:09:26;7.32;;;1.60;;
15116;SDS011;7659;51.038;13.786;2023-10-08T05:12:06;3.35;;;1.10;;
15116;SDS011;7659;51.038;13.786;2023-10-08T05:14:50;4.68;;;1.23;;
15116;SDS011;7659;51.038;13.786;2023-10-08T05:17:45;4.22;;;1.20;;
15116;SDS011;7659;51.038;13.786;2023-10-08T05:20:31;4.43;;;1.20;;
15116;SDS011;7659;51.038;13.786;2023-10-08T05:23:23;4.80;;;0.88;;
15116;SDS011;7659;51.038;13.786;2023-10-08T05:25:49;3.05;;;1.13;;
15116;SDS011;7659;51.038;13.786;2023-10-08T05:28:33;3.72;;;1.40;;
15116;SDS011;7659;51.038;13.786;2023-10-08T05:31:07;5.72;;;1.10;;
15116;SDS011;7659;51.038;13.786;2023-10-08T05:33:39;4.22;;;0.88;;
15116;SDS011;7659;51.038;13.786;2023-10-08T05:36:23;3.65;;;0.85;;
15116;SDS011;7659;51.038;13.786;2023-10-08T05:39:07;5.28;;;1.30;;
15116;SDS011;7659;51.038;13.786;2023-10-08T05:41:55;5.03;;;1.10;;
15116;SDS011;7659;51.038;13.786;2023-10-08T05:44:41;2.38;;;1.00;;
15116;SDS011;7659;51.038;13.786;2023-10-08T05:47:14;3.80;;;0.98;;
15116;SDS011;7659;51.038;13.786;2023-10-08T05:50:15;1.65;;;1.23;;
15116;SDS011;7659;51.038;13.786;2023-10-08T05:52:44;2.95;;;1.20;;
15116;SDS011;7659;51.038;13.786;2023-10-08T05:55:21;2.60;;;1.30;;
15116;SDS011;7659;51.038;13.786;2023-10-08T05:58:02;3.40;;;1.10;;
15116;SDS011;7659;51.038;13.786;2023-10-08T06:00:44;3.10;;;1.65;;
15116;SDS011;7659;51.038;13.786;2023-10-08T06:03:18;2.72;;;1.15;;
15116;SDS011;7659;51.038;13.786;2023-10-08T06:06:13;7.32;;;3.25;;
15116;SDS011;7659;51.038;13.786;2023-10-08T06:08:38;4.53;;;1.75;;
15116;SDS011;7659;51.038;13.786;2023-10-08T06:11:17;3.50;;;1.70;;
15116;SDS011;7659;51.038;13.786;2023-10-08T06:14:02;4.15;;;1.92;;
15116;SDS011;7659;51.038;13.786;2023-10-08T06:16:28;3.80;;;1.50;;
15116;SDS011;7659;51.038;13.786;2023-10-08T06:19:07;2.80;;;1.30;;
15116;SDS011;7659;51.038;13.786;2023-10-08T06:21:33;3.53;;;1.35;;
15116;SDS011;7659;51.038;13.786;2023-10-08T06:23:59;2.67;;;1.10;;
15116;SDS011;7659;51.038;13.786;2023-10-08T06:26:25;3.88;;;1.50;;
15116;SDS011;7659;51.038;13.786;2023-10-08T06:28:52;5.53;;;1.75;;
15116;SDS011;7659;51.038;13.786;2023-10-08T06:31:22;4.55;;;1.33;;
15116;SDS011;7659;51.038;13.786;2023-10-08T06:33:50;5.00;;;1.40;;
15116;SDS011;7659;51.038;13.786;2023-10-08T06:36:16;3.47;;;1.42;;
15116;SDS011;7659;51.038;13.786;2023-10-08T06:38:45;3.83;;;1.40;;
15116;SDS011;7659;51.038;13.786;2023-10-08T06:41:13;3.20;;;1.20;;
15116;SDS011;7659;51.038;13.786;2023-10-08T06:43:42;3.22;;;1.23;;
15116;SDS011;7659;51.038;13.786;2023-10-08T06:46:12;3.67;;;1.63;;
15116;SDS011;7659;51.038;13.786;2023-10-08T06:48:38;4.20;;;1.88;;
15116;SDS011;7659;51.038;13.786;2023-10-08T06:51:08;3.17;;;1.50;;
15116;SDS011;7659;51.038;13.786;2023-10-08T06:53:45;2.55;;;1.30;;
15116;SDS011;7659;51.038;13.786;2023-10-08T06:56:14;3.50;;;1.33;;
15116;SDS011;7659;51.038;13.786;2023-10-08T06:58:40;2.88;;;1.00;;
15116;SDS011;7659;51.038;13.786;2023-10-08T07:01:18;4.20;;;1.27;;
15116;SDS011;7659;51.038;13.786;2023-10-08T07:03:47;3.80;;;1.45;;
15116;SDS011;7659;51.038;13.786;2023-10-08T07:06:14;4.28;;;1.20;;
15116;SDS011;7659;51.038;13.786;2023-10-08T07:08:51;3.03;;;1.33;;
15116;SDS011;7659;51.038;13.786;2023-10-08T07:11:20;4.63;;;1.60;;
15116;SDS011;7659;51.038;13.786;2023-10-08T07:13:45;4.85;;;1.13;;
15116;SDS011;7659;51.038;13.786;2023-10-08T07:16:11;3.50;;;1.08;;
15116;SDS011;7659;51.038;13.786;2023-10-08T07:18:37;2.38;;;1.10;;
15116;SDS011;7659;51.038;13.786;2023-10-08T07:21:02;2.63;;;1.20;;
15116;SDS011;7659;51.038;13.786;2023-10-08T07:23:29;3.80;;;1.20;;
15116;SDS011;7659;51.038;13.786;2023-10-08T07:25:59;6.68;;;3.30;;
15116;SDS011;7659;51.038;13.786;2023-10-08T07:28:37;3.45;;;1.45;;
15116;SDS011;7659;51.038;13.786;2023-10-08T07:31:05;6.55;;;1.63;;
15116;SDS011;7659;51.038;13.786;2023-10-08T07:33:30;3.38;;;1.10;;
15116;SDS011;7659;51.038;13.786;2023-10-08T07:36:01;2.40;;;1.00;;
15116;SDS011;7659;51.038;13.786;2023-10-08T07:38:38;3.97;;;1.23;;
15116;SDS011;7659;51.038;13.786;2023-10-08T07:41:03;2.40;;;1.10;;
15116;SDS011;7659;51.038;13.786;2023-10-08T07:43:31;3.83;;;1.30;;
15116;SDS011;7659;51.038;13.786;2023-10-08T07:45:58;3.00;;;1.30;;
15116;SDS011;7659;51.038;13.786;2023-10-08T07:48:23;2.58;;;1.55;;
15116;SDS011;7659;51.038;13.786;2023-10-08T07:50:55;3.70;;;1.00;;
15116;SDS011;7659;51.038;13.786;2023-10-08T07:53:20;3.95;;;1.60;;
15116;SDS011;7659;51.038;13.786;2023-10-08T07:55:46;2.70;;;1.33;;
15116;SDS011;7659;51.038;13.786;2023-10-08T07:58:15;2.97;;;1.52;;
15116;SDS011;7659;51.038;13.786;2023-10-08T08:00:41;2.50;;;1.20;;
15116;SDS011;7659;51.038;13.786;2023-10-08T08:03:07;2.58;;;1.00;;
15116;SDS011;7659;51.038;13.786;2023-10-08T08:05:32;6.82;;;1.88;;
15116;SDS011;7659;51.038;13.786;2023-10-08T08:07:59;2.15;;;0.82;;
15116;SDS011;7659;51.038;13.786;2023-10-08T08:10:31;2.60;;;1.10;;
15116;SDS011;7659;51.038;13.786;2023-10-08T08:13:05;3.05;;;0.90;;
15116;SDS011;7659;51.038;13.786;2023-10-08T08:15:34;6.80;;;1.38;;
15116;SDS011;7659;51.038;13.786;2023-10-08T08:18:01;3.92;;;1.40;;
15116;SDS011;7659;51.038;13.786;2023-10-08T08:20:30;2.53;;;1.25;;
15116;SDS011;7659;51.038;13.786;2023-10-08T08:23:09;2.42;;;1.00;;
15116;SDS011;7659;51.038;13.786;2023-10-08T08:25:38;4.00;;;1.60;;
15116;SDS011;7659;51.038;13.786;2023-10-08T08:28:22;3.60;;;1.20;;
15116;SDS011;7659;51.038;13.786;2023-10-08T08:30:50;4.03;;;1.20;;
15116;SDS011;7659;51.038;13.786;2023-10-08T08:33:18;3.42;;;1.83;;
15116;SDS011;7659;51.038;13.786;2023-10-08T08:36:00;3.35;;;1.42;;
15116;SDS011;7659;51.038;13.786;2023-10-08T08:38:26;3.55;;;1.17;;
15116;SDS011;7659;51.038;13.786;2023-10-08T08:41:00;5.72;;;2.05;;
15116;SDS011;7659;51.038;13.786;2023-10-08T08:43:33;5.00;;;1.40;;
15116;SDS011;7659;51.038;13.786;2023-10-08T08:45:59;4.18;;;1.73;;
15116;SDS011;7659;51.038;13.786;2023-10-08T08:48:25;5.78;;;1.55;;
15116;SDS011;7659;51.038;13.786;2023-10-08T08:50:50;2.92;;;1.10;;
15116;SDS011;7659;51.038;13.786;2023-10-08T08:53:17;3.47;;;1.60;;
15116;SDS011;7659;51.038;13.786;2023-10-08T08:55:43;5.30;;;1.45;;
15116;SDS011;7659;51.038;13.786;2023-10-08T08:58:09;5.93;;;2.05;;
15116;SDS011;7659;51.038;13.786;2023-10-08T09:00:36;4.15;;;1.65;;
15116;SDS011;7659;51.038;13.786;2023-10-08T09:03:03;5.22;;;1.60;;
15116;SDS011;7659;51.038;13.786;2023-10-08T09:05:31;8.55;;;6.35;;
15116;SDS011;7659;51.038;13.786;2023-10-08T09:08:06;3.97;;;1.80;;
15116;SDS011;7659;51.038;13.786;2023-10-08T09:10:33;6.07;;;2.00;;
15116;SDS011;7659;51.038;13.786;2023-10-08T09:13:22;4.13;;;1.63;;
15116;SDS011;7659;51.038;13.786;2023-10-08T09:15:48;4.10;;;1.70;;
15116;SDS011;7659;51.038;13.786;2023-10-08T09:18:14;5.32;;;1.73;;
15116;SDS011;7659;51.038;13.786;2023-10-08T09:20:39;4.30;;;1.80;;
15116;SDS011;7659;51.038;13.786;2023-10-08T09:23:14;5.07;;;1.30;;
15116;SDS011;7659;51.038;13.786;2023-10-08T09:25:40;5.35;;;1.88;;
15116;SDS011;7659;51.038;13.786;2023-10-08T09:28:06;5.15;;;2.20;;
15116;SDS011;7659;51.038;13.786;2023-10-08T09:30:38;7.25;;;2.22;;
15116;SDS011;7659;51.038;13.786;2023-10-08T09:33:05;12.85;;;4.50;;
15116;SDS011;7659;51.038;13.786;2023-10-08T09:35:31;5.47;;;1.77;;
15116;SDS011;7659;51.038;13.786;2023-10-08T09:37:57;6.47;;;2.17;;
15116;SDS011;7659;51.038;13.786;2023-10-08T09:40:23;10.60;;;4.43;;
15116;SDS011;7659;51.038;13.786;2023-10-08T09:42:49;6.95;;;2.55;;
15116;SDS011;7659;51.038;13.786;2023-10-08T09:45:15;11.90;;;2.63;;
15116;SDS011;7659;51.038;13.786;2023-10-08T09:47:42;10.30;;;2.33;;
15116;SDS011;7659;51.038;13.786;2023-10-08T09:50:10;6.80;;;2.00;;
15116;SDS011;7659;51.038;13.786;2023-10-08T09:53:00;11.07;;;2.60;;
15116;SDS011;7659;51.038;13.786;2023-10-08T09:55:27;4.72;;;2.03;;
15116;SDS011;7659;51.038;13.786;2023-10-08T09:57:52;5.50;;;1.98;;
15116;SDS011;7659;51.038;13.786;2023-10-08T10:00:20;7.55;;;2.20;;
15116;SDS011;7659;51.038;13.786;2023-10-08T10:02:58;6.88;;;2.10;;
15116;SDS011;7659;51.038;13.786;2023-10-08T10:05:30;7.03;;;2.10;;
15116;SDS011;7659;51.038;13.786;2023-10-08T10:07:56;6.15;;;2.65;;
15116;SDS011;7659;51.038;13.786;2023-10-08T10:10:25;6.63;;;2.42;;
15116;SDS011;7659;51.038;13.786;2023-10-08T10:13:03;6.90;;;2.17;;
15116;SDS011;7659;51.038;13.786;2023-10-08T10:15:31;9.70;;;2.20;;
15116;SDS011;7659;51.038;13.786;2023-10-08T10:18:16;6.82;;;2.45;;
15116;SDS011;7659;51.038;13.786;2023-10-08T10:20:49;9.07;;;2.35;;
15116;SDS011;7659;51.038;13.786;2023-10-08T10:25:57;7.95;;;1.63;;
15116;SDS011;7659;51.038;13.786;2023-10-08T10:28:23;5.75;;;1.98;;
15116;SDS011;7659;51.038;13.786;2023-10-08T10:30:50;6.85;;;1.95;;
15116;SDS011;7659;51.038;13.786;2023-10-08T10:33:15;7.20;;;2.17;;
15116;SDS011;7659;51.038;13.786;2023-10-08T10:35:41;6.75;;;1.92;;
15116;SDS011;7659;51.038;13.786;2023-10-08T10:38:09;7.20;;;2.85;;
15116;SDS011;7659;51.038;13.786;2023-10-08T10:40:35;6.20;;;2.50;;
15116;SDS011;7659;51.038;13.786;2023-10-08T10:43:06;5.70;;;2.10;;
15116;SDS011;7659;51.038;13.786;2023-10-08T10:45:32;7.22;;;2.17;;
15116;SDS011;7659;51.038;13.786;2023-10-08T10:48:04;7.95;;;2.13;;
15116;SDS011;7659;51.038;13.786;2023-10-08T10:50:40;6.07;;;2.10;;
15116;SDS011;7659;51.038;13.786;2023-10-08T10:53:24;7.50;;;2.15;;
15116;SDS011;7659;51.038;13.786;2023-10-08T10:55:52;9.05;;;2.25;;
15116;SDS011;7659;51.038;13.786;2023-10-08T10:58:25;6.45;;;2.10;;
15116;SDS011;7659;51.038;13.786;2023-10-08T11:00:51;6.30;;;2.03;;
15116;SDS011;7659;51.038;13.786;2023-10-08T11:03:24;5.22;;;2.15;;
15116;SDS011;7659;51.038;13.786;2023-10-08T11:05:59;7.72;;;2.10;;
15116;SDS011;7659;51.038;13.786;2023-10-08T11:08:25;5.65;;;2.38;;
15116;SDS011;7659;51.038;13.786;2023-10-08T11:10:52;6.60;;;2.00;;
15116;SDS011;7659;51.038;13.786;2023-10-08T11:13:21;7.72;;;2.40;;
15116;SDS011;7659;51.038;13.786;2023-10-08T11:15:53;7.13;;;2.05;;
15116;SDS011;7659;51.038;13.786;2023-10-08T11:18:20;6.18;;;1.80;;
15116;SDS011;7659;51.038;13.786;2023-10-08T11:20:49;6.78;;;1.98;;
15116;SDS011;7659;51.038;13.786;2023-10-08T11:23:36;7.70;;;1.80;;
15116;SDS011;7659;51.038;13.786;2023-10-08T11:26:03;7.75;;;2.03;;
15116;SDS011;7659;51.038;13.786;2023-10-08T11:28:29;6.32;;;1.90;;
15116;SDS011;7659;51.038;13.786;2023-10-08T11:30:59;8.38;;;2.13;;
15116;SDS011;7659;51.038;13.786;2023-10-08T11:33:33;4.03;;;1.90;;
15116;SDS011;7659;51.038;13.786;2023-10-08T11:36:01;7.57;;;1.85;;
15116;SDS011;7659;51.038;13.786;2023-10-08T11:38:37;7.70;;;1.88;;
15116;SDS011;7659;51.038;13.786;2023-10-08T11:41:09;5.22;;;1.80;;
15116;SDS011;7659;51.038;13.786;2023-10-08T11:43:38;5.00;;;2.13;;
15116;SDS011;7659;51.038;13.786;2023-10-08T11:46:04;7.65;;;1.70;;
15116;SDS011;7659;51.038;13.786;2023-10-08T11:48:30;8.90;;;2.00;;
15116;SDS011;7659;51.038;13.786;2023-10-08T11:50:57;5.97;;;1.60;;
15116;SDS011;7659;51.038;13.786;2023-10-08T11:53:26;6.20;;;2.00;;
15116;SDS011;7659;51.038;13.786;2023-10-08T11:55:53;5.70;;;1.67;;
15116;SDS011;7659;51.038;13.786;2023-10-08T11:58:24;10.02;;;1.92;;
15116;SDS011;7659;51.038;13.786;2023-10-08T12:01:02;5.25;;;1.70;;
15116;SDS011;7659;51.038;13.786;2023-10-08T12:03:28;7.90;;;1.75;;
15116;SDS011;7659;51.038;13.786;2023-10-08T12:05:54;4.28;;;1.90;;
15116;SDS011;7659;51.038;13.786;2023-10-08T12:08:24;6.07;;;1.98;;
15116;SDS011;7659;51.038;13.786;2023-10-08T12:10:53;8.27;;;2.13;;
15116;SDS011;7659;51.038;13.786;2023-10-08T12:13:19;5.85;;;1.67;;
15116;SDS011;7659;51.038;13.786;2023-10-08T12:15:51;5.35;;;1.50;;
15116;SDS011;7659;51.038;13.786;2023-10-08T12:18:17;15.73;;;1.85;;
15116;SDS011;7659;51.038;13.786;2023-10-08T12:20:51;5.43;;;1.75;;
15116;SDS011;7659;51.038;13.786;2023-10-08T12:23:19;5.22;;;1.58;;
15116;SDS011;7659;51.038;13.786;2023-10-08T12:25:53;7.00;;;2.15;;
15116;SDS011;7659;51.038;13.786;2023-10-08T12:28:21;5.43;;;1.90;;
15116;SDS011;7659;51.038;13.786;2023-10-08T12:30:49;7.03;;;1.60;;
15116;SDS011;7659;51.038;13.786;2023-10-08T12:33:20;4.70;;;1.50;;
15116;SDS011;7659;51.038;13.786;2023-10-08T12:35:47;8.00;;;1.80;;
15116;SDS011;7659;51.038;13.786;2023-10-08T12:38:13;5.57;;;1.90;;
15116;SDS011;7659;51.038;13.786;2023-10-08T12:40:42;10.43;;;2.33;;
15116;SDS011;7659;51.038;13.786;2023-10-08T12:43:12;7.80;;;1.90;;
15116;SDS011;7659;51.038;13.786;2023-10-08T12:45:38;7.53;;;2.15;;
15116;SDS011;7659;51.038;13.786;2023-10-08T12:48:03;4.85;;;1.42;;
15116;SDS011;7659;51.038;13.786;2023-10-08T12:50:30;7.57;;;2.08;;
15116;SDS011;7659;51.038;13.786;2023-10-08T12:53:04;7.00;;;1.60;;
15116;SDS011;7659;51.038;13.786;2023-10-08T12:55:30;4.25;;;1.27;;
15116;SDS011;7659;51.038;13.786;2023-10-08T12:57:56;6.78;;;1.83;;
15116;SDS011;7659;51.038;13.786;2023-10-08T13:00:33;5.45;;;1.55;;
15116;SDS011;7659;51.038;13.786;2023-10-08T13:03:02;6.25;;;1.63;;
15116;SDS011;7659;51.038;13.786;2023-10-08T13:05:31;6.90;;;1.98;;
15116;SDS011;7659;51.038;13.786;2023-10-08T13:08:07;6.22;;;1.80;;
15116;SDS011;7659;51.038;13.786;2023-10-08T13:10:37;6.45;;;1.60;;
15116;SDS011;7659;51.038;13.786;2023-10-08T13:13:12;5.78;;;1.73;;
15116;SDS011;7659;51.038;13.786;2023-10-08T13:15:38;6.28;;;1.88;;
15116;SDS011;7659;51.038;13.786;2023-10-08T13:18:07;5.32;;;1.35;;
15116;SDS011;7659;51.038;13.786;2023-10-08T13:20:33;8.48;;;2.03;;
15116;SDS011;7659;51.038;13.786;2023-10-08T13:23:02;10.20;;;1.75;;
15116;SDS011;7659;51.038;13.786;2023-10-08T13:25:30;5.05;;;1.63;;
15116;SDS011;7659;51.038;13.786;2023-10-08T13:27:58;3.97;;;1.75;;
15116;SDS011;7659;51.038;13.786;2023-10-08T13:30:28;6.28;;;1.58;;
15116;SDS011;7659;51.038;13.786;2023-10-08T13:32:53;4.25;;;1.73;;
15116;SDS011;7659;51.038;13.786;2023-10-08T13:35:19;6.50;;;1.80;;
15116;SDS011;7659;51.038;13.786;2023-10-08T13:37:44;4.80;;;1.60;;
15116;SDS011;7659;51.038;13.786;2023-10-08T13:40:13;3.60;;;1.45;;
15116;SDS011;7659;51.038;13.786;2023-10-08T13:42:43;2.78;;;1.60;;
15116;SDS011;7659;51.038;13.786;2023-10-08T13:45:10;4.75;;;1.85;;
15116;SDS011;7659;51.038;13.786;2023-10-08T13:47:42;4.72;;;1.50;;
15116;SDS011;7659;51.038;13.786;2023-10-08T13:50:07;2.78;;;1.10;;
15116;SDS011;7659;51.038;13.786;2023-10-08T13:52:36;4.95;;;1.58;;
15116;SDS011;7659;51.038;13.786;2023-10-08T13:55:07;3.30;;;1.42;;
15116;SDS011;7659;51.038;13.786;2023-10-08T13:57:39;5.60;;;1.60;;
15116;SDS011;7659;51.038;13.786;2023-10-08T14:00:07;3.13;;;1.67;;
15116;SDS011;7659;51.038;13.786;2023-10-08T14:02:40;3.38;;;1.38;;
15116;SDS011;7659;51.038;13.786;2023-10-08T14:05:06;5.93;;;1.77;;
15116;SDS011;7659;51.038;13.786;2023-10-08T14:07:35;6.38;;;1.52;;
15116;SDS011;7659;51.038;13.786;2023-10-08T14:10:00;8.25;;;2.70;;
15116;SDS011;7659;51.038;13.786;2023-10-08T14:12:30;3.92;;;1.30;;
15116;SDS011;7659;51.038;13.786;2023-10-08T14:15:00;4.32;;;1.80;;
15116;SDS011;7659;51.038;13.786;2023-10-08T14:17:31;6.07;;;1.90;;
15116;SDS011;7659;51.038;13.786;2023-10-08T14:20:08;3.38;;;1.63;;
15116;SDS011;7659;51.038;13.786;2023-10-08T14:22:38;4.60;;;1.50;;
15116;SDS011;7659;51.038;13.786;2023-10-08T14:25:06;5.40;;;1.60;;
15116;SDS011;7659;51.038;13.786;2023-10-08T14:27:37;4.47;;;1.95;;
15116;SDS011;7659;51.038;13.786;2023-10-08T14:30:06;9.02;;;1.80;;
15116;SDS011;7659;51.038;13.786;2023-10-08T14:32:32;7.97;;;1.80;;
15116;SDS011;7659;51.038;13.786;2023-10-08T14:34:58;5.90;;;1.45;;
15116;SDS011;7659;51.038;13.786;2023-10-08T14:37:24;6.63;;;1.65;;
15116;SDS011;7659;51.038;13.786;2023-10-08T14:40:08;5.75;;;1.90;;
15116;SDS011;7659;51.038;13.786;2023-10-08T14:42:52;8.30;;;1.90;;
15116;SDS011;7659;51.038;13.786;2023-10-08T14:45:24;7.95;;;2.80;;
15116;SDS011;7659;51.038;13.786;2023-10-08T14:47:56;10.15;;;2.97;;
15116;SDS011;7659;51.038;13.786;2023-10-08T14:50:22;7.72;;;1.92;;
15116;SDS011;7659;51.038;13.786;2023-10-08T14:52:48;5.95;;;2.05;;
15116;SDS011;7659;51.038;13.786;2023-10-08T14:55:14;7.90;;;1.88;;
15116;SDS011;7659;51.038;13.786;2023-10-08T14:57:41;6.50;;;2.40;;
15116;SDS011;7659;51.038;13.786;2023-10-08T15:00:07;7.40;;;2.03;;
15116;SDS011;7659;51.038;13.786;2023-10-08T15:02:34;6.72;;;1.77;;
15116;SDS011;7659;51.038;13.786;2023-10-08T15:04:59;8.13;;;2.03;;
15116;SDS011;7659;51.038;13.786;2023-10-08T15:07:26;4.50;;;2.20;;
15116;SDS011;7659;51.038;13.786;2023-10-08T15:09:53;5.53;;;1.77;;